Time;durP1;ratioP1;P1;durP2;ratioP2;P2;SDS_P1;SDS_P2;PMS_P1;PMS_P2;Temp;Humidity;BMP_temperature;BMP_pressure;BME280_temperature;BME280_humidity;BME280_pressure;Samples;Min_cycle;Max_cycle;Signal;HPM_P1;HPM_P2
2022/04/13 10:21:10;;;;;;;7.63;2.80;;;16.40;90.80;;;;;;5119757;27;20114;-49
2022/04/13 10:23:37;;;;;;;6.32;2.78;;;16.40;91.90;;;;;;5091504;28;20127;-50
2022/04/13 10:26:04;;;;;;;7.03;2.65;;;16.50;91.50;;;;;;5094361;28;20135;-53
2022/04/13 10:28:31;;;;;;;5.50;2.65;;;16.70;91.50;;;;;;5075581;28;20055;-51
2022/04/13 10:30:57;;;;;;;6.40;2.80;;;16.90;90.80;;;;;;5110319;28;20064;-56
2022/04/13 10:33:24;;;;;;;5.05;2.63;;;17.00;90.70;;;;;;5110347;28;20430;-54
2022/04/13 10:35:55;;;;;;;6.50;2.50;;;17.10;90.40;;;;;;5110728;28;20046;-53
2022/04/13 10:38:22;;;;;;;6.47;2.17;;;17.30;90.20;;;;;;5108850;28;20047;-52
2022/04/13 10:40:49;;;;;;;6.18;2.17;;;17.40;88.10;;;;;;5110354;28;20122;-53
2022/04/13 10:43:16;;;;;;;7.00;1.90;;;17.40;88.20;;;;;;5092521;28;20481;-49
2022/04/13 10:45:43;;;;;;;5.18;1.50;;;17.50;87.80;;;;;;5110205;28;20063;-52
2022/04/13 10:48:09;;;;;;;6.03;2.00;;;17.50;86.90;;;;;;5110098;28;20396;-50
2022/04/13 10:50:36;;;;;;;3.88;1.42;;;17.50;85.70;;;;;;5096602;28;20044;-50
2022/04/13 10:53:03;;;;;;;6.70;1.70;;;17.50;85.50;;;;;;5094407;28;20044;-54
2022/04/13 10:55:33;;;;;;;4.45;1.40;;;17.60;85.40;;;;;;5089773;28;20068;-53
2022/04/13 10:58:00;;;;;;;4.90;1.83;;;17.60;85.40;;;;;;5108793;28;20044;-53
2022/04/13 11:00:27;;;;;;;3.30;1.40;;;17.80;84.80;;;;;;5109325;28;20058;-52
2022/04/13 11:02:54;;;;;;;4.25;1.63;;;17.80;84.10;;;;;;5109077;28;20475;-48
2022/04/13 11:05:21;;;;;;;5.15;1.77;;;17.90;84.60;;;;;;5104041;28;20044;-50
2022/04/13 11:07:48;;;;;;;3.97;1.50;;;17.90;82.70;;;;;;5089818;28;20040;-55
2022/04/13 11:10:14;;;;;;;3.33;1.65;;;17.90;82.70;;;;;;5108116;28;20040;-51
2022/04/13 11:12:41;;;;;;;5.28;1.73;;;17.90;82.70;;;;;;5109126;28;20043;-50
2022/04/13 11:15:08;;;;;;;6.18;1.83;;;17.90;83.30;;;;;;5109165;28;20123;-50
2022/04/13 11:17:35;;;;;;;4.55;1.75;;;17.80;83.20;;;;;;5109065;28;20032;-50
2022/04/13 11:20:01;;;;;;;5.82;1.70;;;17.90;84.10;;;;;;5097879;28;20409;-48
2022/04/13 11:22:28;;;;;;;4.72;1.67;;;17.90;82.20;;;;;;5086339;28;20041;-51
2022/04/13 11:24:58;;;;;;;7.05;1.90;;;17.90;83.40;;;;;;5084617;28;20105;-51
2022/04/13 11:27:25;;;;;;;6.32;1.80;;;17.90;82.90;;;;;;5087678;28;20482;-54
2022/04/13 11:29:52;;;;;;;4.20;1.50;;;17.80;82.80;;;;;;5086828;28;20044;-54
2022/04/13 11:32:18;;;;;;;6.07;1.70;;;17.70;82.90;;;;;;5075998;28;20045;-53
2022/04/13 11:34:45;;;;;;;6.40;1.60;;;17.70;83.90;;;;;;5057326;28;20080;-50
2022/04/13 11:37:12;;;;;;;7.10;1.58;;;17.80;83.90;;;;;;5058439;28;20041;-47
2022/04/13 11:39:39;;;;;;;5.45;1.80;;;17.80;83.00;;;;;;5057011;28;20192;-51
2022/04/13 11:42:05;;;;;;;4.03;1.80;;;17.90;83.30;;;;;;5055527;28;20415;-51
2022/04/13 11:44:32;;;;;;;5.13;1.60;;;17.80;82.60;;;;;;5063654;28;20395;-52
2022/04/13 11:46:59;;;;;;;5.32;1.75;;;17.80;82.90;;;;;;5062674;28;20041;-55
2022/04/13 11:49:26;;;;;;;3.47;1.52;;;17.90;82.80;;;;;;5072085;28;20127;-51
2022/04/13 11:51:54;;;;;;;3.53;1.33;;;18.00;83.00;;;;;;5074517;28;20044;-53
2022/04/13 11:54:21;;;;;;;5.32;1.60;;;18.30;82.80;;;;;;5074935;28;20049;-53
2022/04/13 11:56:48;;;;;;;4.00;1.45;;;18.40;81.80;;;;;;5055727;28;20056;-52
2022/04/13 11:59:14;;;;;;;5.70;1.60;;;18.50;79.80;;;;;;5037370;28;20103;-51
2022/04/13 12:01:41;;;;;;;4.85;1.40;;;18.60;80.30;;;;;;5055131;28;20045;-52
2022/04/13 12:04:08;;;;;;;2.97;1.08;;;18.70;79.70;;;;;;5055306;28;20068;-51
2022/04/13 12:06:36;;;;;;;4.93;1.40;;;18.80;79.50;;;;;;5072259;28;20397;-51
2022/04/13 12:09:03;;;;;;;4.00;1.77;;;18.80;78.90;;;;;;5074430;28;20450;-50
2022/04/13 12:11:30;;;;;;;5.22;1.45;;;18.80;79.20;;;;;;5074086;28;20044;-50
2022/04/13 12:13:56;;;;;;;3.88;1.30;;;18.90;80.20;;;;;;5074126;28;20072;-51
2022/04/13 12:16:23;;;;;;;5.28;1.35;;;19.10;78.10;;;;;;5074345;28;20045;-49
2022/04/13 12:18:50;;;;;;;4.80;1.67;;;19.20;77.40;;;;;;5074012;28;20433;-51
2022/04/13 12:21:17;;;;;;;5.72;1.63;;;19.30;76.80;;;;;;5057889;28;20037;-53
2022/04/13 12:23:43;;;;;;;4.43;1.60;;;19.20;77.30;;;;;;5054905;28;20125;-55
2022/04/13 12:26:10;;;;;;;3.45;1.25;;;19.20;78.20;;;;;;5063505;28;20033;-54
2022/04/13 12:28:37;;;;;;;4.40;1.52;;;19.30;77.10;;;;;;5074184;28;20070;-52
2022/04/13 12:31:04;;;;;;;6.57;1.10;;;19.20;77.00;;;;;;5056028;28;20044;-53
2022/04/13 12:33:31;;;;;;;6.03;1.10;;;19.10;76.00;;;;;;5073776;28;20044;-54
2022/04/13 12:36:01;;;;;;;2.63;0.98;;;19.00;75.40;;;;;;5073851;28;20044;-52
2022/04/13 12:38:28;;;;;;;3.25;1.17;;;19.00;76.30;;;;;;5073565;28;20036;-52
2022/04/13 12:40:55;;;;;;;6.15;1.48;;;19.00;76.90;;;;;;5073326;28;20042;-50
2022/04/13 12:43:25;;;;;;;3.10;1.15;;;19.00;77.30;;;;;;5072614;28;20051;-49
2022/04/13 12:45:52;;;;;;;4.95;1.27;;;19.00;77.10;;;;;;5069391;28;20051;-49
2022/04/13 12:48:19;;;;;;;2.30;0.98;;;19.00;77.40;;;;;;5054483;28;20087;-53
2022/04/13 12:50:46;;;;;;;3.88;1.30;;;19.10;76.50;;;;;;5054100;28;20044;-53
2022/04/13 12:53:12;;;;;;;4.95;1.25;;;19.10;76.60;;;;;;5054478;28;20056;-55
2022/04/13 12:55:39;;;;;;;3.17;1.10;;;19.20;76.10;;;;;;5057766;28;20123;-50
2022/04/13 12:58:06;;;;;;;2.75;1.00;;;19.20;75.90;;;;;;5073507;28;20036;-52
2022/04/13 13:00:33;;;;;;;2.97;0.93;;;19.20;75.60;;;;;;5073512;28;20044;-51
2022/04/13 13:02:59;;;;;;;4.53;1.00;;;19.30;75.60;;;;;;5055563;28;20039;-55
2022/04/13 13:05:27;;;;;;;4.60;1.00;;;19.40;74.60;;;;;;5050943;28;20076;-54
2022/04/13 13:07:55;;;;;;;4.40;1.20;;;19.40;74.00;;;;;;5053894;28;20124;-50
2022/04/13 13:10:22;;;;;;;2.78;1.00;;;19.50;73.70;;;;;;5053887;28;20056;-53
2022/04/13 13:12:48;;;;;;;4.78;1.27;;;19.40;72.20;;;;;;5053956;28;20060;-51
2022/04/13 13:15:17;;;;;;;3.55;0.90;;;19.40;73.00;;;;;;5053940;28;20127;-52
2022/04/13 13:17:44;;;;;;;4.38;0.98;;;19.40;72.10;;;;;;5053120;28;20431;-54
2022/04/13 13:20:10;;;;;;;4.25;1.10;;;19.40;73.50;;;;;;5069229;28;20556;-49
2022/04/13 13:22:40;;;;;;;3.60;0.90;;;19.40;73.20;;;;;;5072694;28;20049;-54
2022/04/13 13:25:08;;;;;;;2.72;1.05;;;19.40;73.40;;;;;;5067847;28;20487;-51
2022/04/13 13:27:38;;;;;;;3.35;0.93;;;19.50;73.00;;;;;;5054056;28;20041;-52
2022/04/13 13:30:05;;;;;;;3.25;1.20;;;19.50;73.40;;;;;;5053871;28;20491;-50
2022/04/13 13:32:32;;;;;;;3.38;0.98;;;19.50;72.80;;;;;;5053141;28;20040;-48
2022/04/13 13:34:59;;;;;;;5.03;1.10;;;19.50;72.10;;;;;;5053596;28;20102;-53
2022/04/13 13:37:25;;;;;;;3.72;1.40;;;19.50;72.60;;;;;;5053658;28;20056;-51
2022/04/13 13:39:52;;;;;;;4.22;1.05;;;19.60;71.90;;;;;;5053255;28;20069;-51
2022/04/13 13:42:19;;;;;;;3.42;1.10;;;19.50;71.50;;;;;;5053374;28;20131;-52
2022/04/13 13:44:45;;;;;;;3.33;1.10;;;19.40;72.60;;;;;;5054186;28;20127;-53
2022/04/13 13:47:12;;;;;;;4.28;1.25;;;19.50;72.50;;;;;;5053509;28;20503;-52
2022/04/13 13:49:39;;;;;;;3.63;1.23;;;19.70;72.20;;;;;;5053187;28;20079;-55
2022/04/13 13:52:06;;;;;;;6.22;1.10;;;19.70;71.20;;;;;;5053234;28;20033;-51
2022/04/13 13:54:35;;;;;;;2.78;0.88;;;19.80;70.20;;;;;;5053092;28;20103;-50
2022/04/13 13:57:01;;;;;;;3.97;1.17;;;19.80;70.10;;;;;;5068849;28;20407;-50
2022/04/13 13:59:28;;;;;;;3.65;0.90;;;19.70;69.40;;;;;;5072502;28;20068;-47
2022/04/13 14:01:56;;;;;;;4.47;1.00;;;19.60;70.30;;;;;;5053576;28;20045;-55
2022/04/13 14:04:23;;;;;;;3.65;1.00;;;19.60;70.80;;;;;;5056678;28;20080;-51
2022/04/13 14:06:49;;;;;;;3.78;1.02;;;19.60;69.40;;;;;;5053195;28;20635;-56
2022/04/13 14:09:16;;;;;;;3.38;1.27;;;19.50;70.60;;;;;;5035580;28;20123;-50
2022/04/13 14:11:43;;;;;;;7.38;1.23;;;19.40;70.90;;;;;;5052875;28;20052;-55
2022/04/13 14:14:10;;;;;;;2.72;0.90;;;19.40;70.60;;;;;;5052925;28;20430;-49
2022/04/13 14:16:36;;;;;;;4.57;0.95;;;19.60;72.60;;;;;;5053132;28;20052;-51
2022/04/13 14:19:03;;;;;;;3.38;0.85;;;19.70;70.40;;;;;;5054947;28;20387;-53
2022/04/13 14:21:30;;;;;;;2.33;0.85;;;19.80;69.90;;;;;;5053015;28;20041;-52
2022/04/13 14:23:57;;;;;;;3.05;0.98;;;19.80;70.20;;;;;;5052941;28;20087;-51
2022/04/13 14:26:23;;;;;;;2.70;0.80;;;19.70;70.50;;;;;;5060625;28;20040;-55
2022/04/13 14:28:50;;;;;;;4.95;0.88;;;19.70;71.10;;;;;;5072361;28;20090;-52
2022/04/13 14:31:19;;;;;;;5.88;1.10;;;19.70;70.80;;;;;;5071982;28;20044;-54
2022/04/13 14:33:45;;;;;;;2.90;0.90;;;19.70;70.90;;;;;;5072084;28;20071;-55
2022/04/13 14:36:12;;;;;;;4.97;1.20;;;19.70;70.50;;;;;;5072423;28;20059;-51
2022/04/13 14:38:39;;;;;;;6.60;1.35;;;19.60;71.00;;;;;;5072225;28;20119;-52
2022/04/13 14:41:06;;;;;;;4.55;1.33;;;19.70;71.50;;;;;;5072003;28;20417;-51
2022/04/13 14:43:32;;;;;;;5.22;0.98;;;19.70;71.30;;;;;;5072036;28;20070;-54
2022/04/13 14:46:00;;;;;;;4.93;1.02;;;19.70;71.60;;;;;;5072100;28;20067;-52
2022/04/13 14:48:27;;;;;;;4.93;1.27;;;19.60;71.50;;;;;;5072151;28;20452;-52
2022/04/13 14:50:54;;;;;;;3.90;1.20;;;19.60;71.30;;;;;;5072215;28;20044;-54
2022/04/13 14:53:21;;;;;;;3.78;1.27;;;19.40;71.30;;;;;;5071694;28;20427;-53
2022/04/13 14:55:47;;;;;;;5.28;1.35;;;19.30;72.30;;;;;;5062272;28;20062;-50
2022/04/13 14:58:14;;;;;;;5.55;1.20;;;19.30;72.70;;;;;;5052695;28;20071;-54
2022/04/13 15:00:41;;;;;;;6.18;2.10;;;19.20;73.30;;;;;;5052057;28;20486;-50
2022/04/13 15:03:08;;;;;;;4.00;1.35;;;19.20;73.70;;;;;;5052821;28;20479;-50
2022/04/13 15:05:34;;;;;;;4.90;1.30;;;19.30;73.70;;;;;;5052905;28;20044;-52
2022/04/13 15:08:01;;;;;;;3.15;1.08;;;19.40;73.10;;;;;;5057027;28;20442;-51
2022/04/13 15:10:28;;;;;;;4.10;1.08;;;19.40;73.00;;;;;;5056327;28;20040;-49
2022/04/13 15:12:55;;;;;;;5.65;1.17;;;19.30;72.70;;;;;;5056165;28;20056;-52
2022/04/13 15:15:23;;;;;;;3.85;1.27;;;19.20;72.80;;;;;;5056168;28;20128;-54
2022/04/13 15:17:49;;;;;;;5.22;0.88;;;19.20;72.30;;;;;;5056298;28;20044;-53
2022/04/13 15:20:17;;;;;;;6.97;1.20;;;19.20;72.30;;;;;;5055726;28;20552;-51
2022/04/13 15:22:44;;;;;;;3.58;1.05;;;19.10;72.50;;;;;;5056127;28;20479;-53
2022/04/13 15:25:10;;;;;;;4.70;1.40;;;19.10;72.50;;;;;;5038280;28;20033;-52
2022/04/13 15:27:41;;;;;;;3.67;1.08;;;19.10;72.80;;;;;;5056150;28;20040;-54
2022/04/13 15:30:07;;;;;;;3.42;1.00;;;19.20;72.20;;;;;;5056305;28;20037;-55
2022/04/13 15:32:34;;;;;;;3.30;0.85;;;19.30;71.90;;;;;;5055996;28;20069;-51
2022/04/13 15:35:01;;;;;;;3.10;0.98;;;19.30;70.50;;;;;;5056189;28;20041;-51
2022/04/13 15:37:29;;;;;;;4.93;1.00;;;19.20;69.40;;;;;;5056084;28;20499;-50
2022/04/13 15:39:56;;;;;;;5.53;1.10;;;19.20;70.00;;;;;;5056056;28;20048;-52
2022/04/13 15:42:22;;;;;;;3.00;0.82;;;19.20;70.00;;;;;;5056340;28;20237;-51
2022/04/13 15:44:49;;;;;;;4.15;1.00;;;19.20;69.20;;;;;;5056034;28;20037;-50
2022/04/13 15:47:17;;;;;;;5.75;0.95;;;19.20;68.00;;;;;;5055905;28;20033;-48
2022/04/13 15:49:44;;;;;;;3.72;1.00;;;19.10;69.20;;;;;;5056156;28;20037;-52
2022/04/13 15:52:11;;;;;;;4.63;1.10;;;19.10;69.00;;;;;;5055736;28;20140;-54
2022/04/13 15:54:37;;;;;;;3.67;1.02;;;19.10;69.20;;;;;;5055810;28;20372;-52
2022/04/13 15:57:04;;;;;;;7.85;1.17;;;19.10;69.30;;;;;;5055997;28;20072;-53
2022/04/13 15:59:31;;;;;;;5.40;1.25;;;19.10;69.80;;;;;;5068841;28;20487;-54
2022/04/13 16:01:58;;;;;;;3.95;1.23;;;19.10;70.40;;;;;;5055637;28;20060;-51
2022/04/13 16:04:26;;;;;;;4.78;1.45;;;19.00;70.40;;;;;;5055889;28;20487;-52
2022/04/13 16:06:53;;;;;;;3.60;0.93;;;18.90;71.00;;;;;;5068655;28;20036;-51
2022/04/13 16:09:20;;;;;;;3.90;1.38;;;18.80;71.40;;;;;;5055750;28;20040;-51
2022/04/13 16:12:07;;;;;;;3.92;1.10;;;18.80;72.30;;;;;;5055460;28;20041;-55
2022/04/13 16:14:34;;;;;;;3.78;1.38;;;18.80;72.40;;;;;;5069320;28;20127;-55
2022/04/13 16:17:00;;;;;;;3.83;1.13;;;18.80;72.40;;;;;;5074551;28;20052;-52
2022/04/13 16:19:27;;;;;;;3.30;0.98;;;18.80;72.20;;;;;;5072561;28;20049;-52
2022/04/13 16:21:54;;;;;;;4.25;1.17;;;18.70;72.80;;;;;;5074478;28;20059;-55
2022/04/13 16:24:21;;;;;;;6.72;1.25;;;18.60;73.60;;;;;;5074595;28;20372;-57
2022/04/13 16:26:48;;;;;;;6.40;1.20;;;18.50;73.90;;;;;;5071390;28;20041;-55
2022/04/13 16:29:14;;;;;;;4.05;1.48;;;18.50;74.70;;;;;;5074408;28;20067;-55
2022/04/13 16:31:41;;;;;;;5.13;1.20;;;18.50;75.40;;;;;;5074420;28;20491;-53
2022/04/13 16:34:08;;;;;;;6.97;1.23;;;18.50;75.40;;;;;;5056157;28;20483;-55
2022/04/13 16:36:35;;;;;;;3.78;1.55;;;18.40;75.80;;;;;;5073264;28;20044;-52
2022/04/13 16:39:01;;;;;;;4.72;1.35;;;18.30;76.60;;;;;;5074302;28;20072;-48
2022/04/13 16:41:28;;;;;;;5.82;1.50;;;18.30;77.00;;;;;;5071849;28;20044;-50
2022/04/13 16:44:12;;;;;;;3.92;1.20;;;18.30;77.20;;;;;;5056596;28;20507;-56
2022/04/13 16:46:39;;;;;;;7.65;1.63;;;18.30;77.10;;;;;;5074129;28;20467;-56
2022/04/13 16:49:06;;;;;;;6.43;1.55;;;18.20;77.50;;;;;;5071884;28;20036;-52
2022/04/13 16:51:33;;;;;;;3.97;1.30;;;18.20;77.70;;;;;;5056254;28;20074;-52
2022/04/13 16:53:59;;;;;;;4.68;1.40;;;18.80;76.90;;;;;;5071554;28;20426;-54
2022/04/13 16:56:26;;;;;;;6.32;1.30;;;19.30;75.40;;;;;;5054918;28;20407;-56
2022/04/13 16:58:53;;;;;;;4.22;1.52;;;19.80;74.00;;;;;;5054789;28;20044;-52
2022/04/13 17:01:19;;;;;;;6.88;1.42;;;20.00;72.60;;;;;;5063660;28;20036;-51
2022/04/13 17:03:46;;;;;;;4.63;1.40;;;19.80;71.80;;;;;;5073640;28;20068;-55
2022/04/13 17:06:13;;;;;;;11.27;1.90;;;19.40;73.20;;;;;;5073703;28;20037;-50
2022/04/13 17:08:40;;;;;;;5.25;1.90;;;19.10;74.20;;;;;;5073710;28;20045;-51
2022/04/13 17:11:07;;;;;;;5.95;1.45;;;19.20;73.70;;;;;;5073545;28;20075;-53
2022/04/13 17:13:33;;;;;;;7.60;1.40;;;19.10;72.70;;;;;;5055964;28;20053;-52
2022/04/13 17:16:00;;;;;;;4.28;1.52;;;19.20;73.20;;;;;;5073478;28;20051;-51
2022/04/13 17:18:27;;;;;;;3.72;1.60;;;19.10;73.50;;;;;;5073584;28;20083;-57
2022/04/13 17:20:54;;;;;;;4.65;1.58;;;19.00;74.10;;;;;;5069915;28;20056;-54
2022/04/13 17:23:25;;;;;;;5.65;1.60;;;18.70;74.80;;;;;;5073625;28;20067;-51
2022/04/13 17:25:52;;;;;;;6.32;1.45;;;18.60;75.40;;;;;;5073504;28;20067;-51
2022/04/13 17:28:19;;;;;;;6.55;1.42;;;18.70;75.60;;;;;;5068315;28;20036;-50
2022/04/13 17:30:46;;;;;;;6.28;1.70;;;18.60;75.30;;;;;;5072821;28;20475;-50
2022/04/13 17:33:13;;;;;;;4.07;1.10;;;18.40;76.00;;;;;;5073055;28;20048;-56
2022/04/13 17:35:40;;;;;;;4.53;1.30;;;18.30;76.50;;;;;;5073132;28;20066;-52
2022/04/13 17:38:08;;;;;;;4.60;1.30;;;18.20;76.70;;;;;;5073236;28;20041;-51
2022/04/13 17:40:35;;;;;;;7.45;1.60;;;18.10;76.90;;;;;;5060370;28;20033;-52
2022/04/13 17:43:02;;;;;;;5.75;1.67;;;18.00;77.40;;;;;;5055013;28;20042;-51
2022/04/13 17:45:29;;;;;;;5.05;1.60;;;17.80;77.80;;;;;;5072980;28;20037;-53
2022/04/13 17:47:56;;;;;;;5.05;1.52;;;17.70;78.40;;;;;;5073048;28;20040;-55
2022/04/13 17:50:22;;;;;;;4.93;1.40;;;17.60;78.90;;;;;;5072904;28;20086;-53
2022/04/13 17:52:49;;;;;;;5.07;1.60;;;17.50;79.40;;;;;;5072783;28;20379;-53
2022/04/13 17:55:18;;;;;;;6.57;2.03;;;17.40;79.70;;;;;;5072854;28;20036;-53
2022/04/13 17:57:45;;;;;;;7.18;1.55;;;17.30;80.30;;;;;;5059028;28;20041;-50
2022/04/13 18:00:12;;;;;;;6.47;1.80;;;17.30;80.90;;;;;;5056057;28;20410;-52
2022/04/13 18:02:39;;;;;;;4.63;1.30;;;17.20;81.00;;;;;;5054981;28;20441;-53
2022/04/13 18:05:06;;;;;;;7.13;1.70;;;17.10;81.50;;;;;;5072962;28;20391;-55
2022/04/13 18:07:33;;;;;;;5.53;1.92;;;17.10;81.80;;;;;;5072462;28;20036;-49
2022/04/13 18:09:59;;;;;;;3.88;1.38;;;17.10;82.20;;;;;;5048903;28;20033;-54
2022/04/13 18:12:26;;;;;;;4.45;1.60;;;17.00;82.40;;;;;;5053361;28;20041;-53
2022/04/13 18:14:53;;;;;;;6.47;1.58;;;17.00;82.40;;;;;;5053465;28;20044;-50
2022/04/13 18:17:20;;;;;;;7.45;2.15;;;17.00;82.50;;;;;;5072865;28;20047;-53
2022/04/13 18:19:49;;;;;;;7.95;1.98;;;17.00;82.70;;;;;;5066739;28;20052;-51
2022/04/13 18:22:16;;;;;;;6.20;1.90;;;17.10;83.00;;;;;;5072611;28;20040;-51
2022/04/13 18:24:43;;;;;;;7.40;2.25;;;17.10;83.30;;;;;;5072440;28;20045;-54
2022/04/13 18:27:09;;;;;;;10.63;2.35;;;17.00;83.30;;;;;;5072520;28;20044;-52
2022/04/13 18:29:36;;;;;;;5.18;1.85;;;17.00;83.80;;;;;;5071886;28;20045;-53
2022/04/13 18:32:03;;;;;;;5.93;1.98;;;16.90;83.90;;;;;;5072365;28;20056;-49
2022/04/13 18:34:30;;;;;;;5.63;1.60;;;16.90;84.30;;;;;;5072576;28;20045;-53
2022/04/13 18:36:56;;;;;;;8.43;2.08;;;16.90;84.80;;;;;;5054903;28;20087;-50
2022/04/13 18:39:23;;;;;;;8.48;1.80;;;16.90;85.30;;;;;;5072616;28;20050;-54
2022/04/13 18:41:50;;;;;;;6.28;1.90;;;16.80;85.20;;;;;;5074506;28;20120;-52
2022/04/13 18:44:19;;;;;;;7.20;1.83;;;16.80;85.70;;;;;;5070633;28;20036;-55
2022/04/13 18:46:45;;;;;;;6.63;2.30;;;16.80;86.20;;;;;;5076423;28;20151;-55
2022/04/13 18:49:12;;;;;;;7.75;1.70;;;16.70;86.60;;;;;;5076431;28;20445;-52
2022/04/13 18:51:39;;;;;;;7.25;2.25;;;16.70;86.90;;;;;;5076424;28;20055;-54
2022/04/13 18:54:05;;;;;;;8.35;1.95;;;16.60;87.10;;;;;;5058564;28;20049;-49
2022/04/13 18:56:32;;;;;;;8.30;2.40;;;16.60;87.40;;;;;;5076226;28;20066;-52
2022/04/13 18:58:59;;;;;;;8.07;2.20;;;16.60;87.20;;;;;;5076234;28;20044;-51
2022/04/13 19:01:26;;;;;;;6.95;1.85;;;16.60;87.50;;;;;;5071306;28;20065;-53
2022/04/13 19:03:53;;;;;;;5.10;1.77;;;16.60;87.80;;;;;;5053830;28;20495;-53
2022/04/13 19:06:20;;;;;;;7.30;2.00;;;16.50;88.20;;;;;;5062148;28;20041;-49
2022/04/13 19:08:46;;;;;;;8.55;2.40;;;16.50;88.60;;;;;;5072667;28;20044;-52
2022/04/13 19:11:14;;;;;;;7.40;2.30;;;16.50;89.10;;;;;;5075611;28;20040;-51
2022/04/13 19:13:41;;;;;;;7.70;2.25;;;16.40;89.30;;;;;;5068769;28;20032;-51
2022/04/13 19:16:08;;;;;;;7.03;1.90;;;16.40;89.30;;;;;;5075394;28;20051;-49
2022/04/13 19:18:35;;;;;;;7.78;2.08;;;16.40;89.30;;;;;;5075293;28;20457;-53
2022/04/13 19:21:01;;;;;;;8.32;2.40;;;16.40;89.70;;;;;;5075390;28;20115;-52
2022/04/13 19:23:28;;;;;;;5.25;1.75;;;16.40;89.70;;;;;;5075543;28;20386;-54
2022/04/13 19:25:55;;;;;;;12.00;2.83;;;16.40;89.70;;;;;;5075207;28;20105;-53
2022/04/13 19:28:22;;;;;;;7.97;2.22;;;16.30;89.80;;;;;;5057842;28;20052;-53
2022/04/13 19:30:49;;;;;;;11.18;2.75;;;16.30;90.00;;;;;;5072695;28;20067;-55
2022/04/13 19:33:16;;;;;;;7.50;2.40;;;16.30;89.90;;;;;;5075070;28;20047;-50
2022/04/13 19:35:43;;;;;;;10.45;2.72;;;16.30;89.90;;;;;;5074993;28;20065;-49
2022/04/13 19:38:09;;;;;;;7.72;2.15;;;16.30;90.10;;;;;;5075162;28;20052;-54
2022/04/13 19:40:54;;;;;;;9.25;2.65;;;16.30;90.10;;;;;;5075035;28;20083;-53
2022/04/13 19:43:21;;;;;;;7.20;2.15;;;16.30;90.00;;;;;;5074875;28;20483;-54
2022/04/13 19:45:48;;;;;;;7.53;2.30;;;16.20;90.00;;;;;;5062230;28;20048;-53
2022/04/13 19:48:15;;;;;;;8.25;2.47;;;16.20;90.00;;;;;;5055693;28;20375;-51
2022/04/13 19:50:42;;;;;;;7.28;2.42;;;16.20;90.10;;;;;;5037786;28;20045;-52
2022/04/13 19:53:08;;;;;;;7.45;2.50;;;16.20;90.10;;;;;;5055241;28;20120;-53
2022/04/13 19:55:35;;;;;;;5.43;2.15;;;16.20;90.00;;;;;;5055460;28;20491;-52
2022/04/13 19:58:02;;;;;;;8.45;2.33;;;16.20;90.10;;;;;;5055637;28;20033;-52
2022/04/13 20:00:28;;;;;;;6.55;2.50;;;16.10;90.00;;;;;;5066669;28;20047;-53
2022/04/13 20:02:55;;;;;;;6.60;2.30;;;16.10;90.00;;;;;;5074354;28;20068;-51
2022/04/13 20:05:22;;;;;;;7.97;1.83;;;16.10;90.10;;;;;;5074525;28;20041;-54
2022/04/13 20:07:49;;;;;;;6.90;2.38;;;16.10;90.10;;;;;;5074718;28;20067;-54
2022/04/13 20:10:15;;;;;;;9.82;2.83;;;16.10;90.10;;;;;;5074454;28;20545;-50
2022/04/13 20:12:42;;;;;;;6.25;2.25;;;16.00;90.10;;;;;;5074250;28;20044;-55
2022/04/13 20:15:09;;;;;;;6.88;2.40;;;16.00;90.10;;;;;;5063512;28;20523;-53
2022/04/13 20:17:36;;;;;;;7.53;2.17;;;16.00;90.10;;;;;;5055256;28;20102;-54
2022/04/13 20:20:02;;;;;;;8.50;1.98;;;15.90;90.20;;;;;;5055002;28;20147;-51
2022/04/13 20:22:30;;;;;;;5.82;1.98;;;15.90;90.30;;;;;;5069485;28;20036;-51
2022/04/13 20:24:57;;;;;;;6.72;1.92;;;15.80;90.50;;;;;;5074020;28;20037;-53
2022/04/13 20:27:24;;;;;;;8.60;2.10;;;15.80;90.50;;;;;;5074199;28;20041;-51
2022/04/13 20:29:50;;;;;;;6.30;1.90;;;15.70;90.60;;;;;;5072668;28;20475;-50
2022/04/13 20:32:17;;;;;;;10.55;2.53;;;15.60;90.70;;;;;;5071338;28;20578;-50
2022/04/13 20:34:44;;;;;;;5.93;1.75;;;15.50;90.70;;;;;;5074527;28;20059;-52
2022/04/13 20:37:10;;;;;;;9.40;2.30;;;15.50;90.80;;;;;;5056817;28;20483;-54
2022/04/13 20:39:37;;;;;;;8.40;2.13;;;15.40;91.00;;;;;;5074354;28;20048;-50
2022/04/13 20:42:04;;;;;;;7.47;2.10;;;15.30;91.20;;;;;;5074009;28;20127;-54
2022/04/13 20:44:34;;;;;;;7.55;2.40;;;15.30;91.30;;;;;;5074009;28;20078;-53
2022/04/13 20:47:01;;;;;;;6.25;2.38;;;15.20;91.50;;;;;;5074152;28;20509;-51
2022/04/13 20:49:28;;;;;;;10.35;2.50;;;15.20;91.40;;;;;;5074239;28;20040;-48
2022/04/13 20:51:55;;;;;;;8.35;2.70;;;15.10;91.50;;;;;;5073671;28;20048;-51
2022/04/13 20:54:23;;;;;;;5.55;2.03;;;15.10;91.50;;;;;;5073912;28;20091;-54
2022/04/13 20:56:50;;;;;;;5.72;2.25;;;15.10;91.60;;;;;;5073847;28;20048;-54
2022/04/13 20:59:16;;;;;;;4.45;2.00;;;15.00;91.80;;;;;;5073893;28;20431;-53
2022/04/13 21:01:43;;;;;;;7.20;2.42;;;15.00;91.60;;;;;;5071220;28;20403;-52
2022/04/13 21:04:10;;;;;;;7.15;2.47;;;15.00;91.70;;;;;;5073008;28;20068;-52
2022/04/13 21:06:37;;;;;;;6.03;2.05;;;14.90;91.70;;;;;;5072135;28;20434;-52
2022/04/13 21:09:03;;;;;;;9.13;2.35;;;14.90;91.90;;;;;;5073471;28;20119;-53
2022/04/13 21:11:30;;;;;;;7.70;2.20;;;14.90;91.90;;;;;;5067665;28;20049;-51
2022/04/13 21:13:57;;;;;;;9.07;2.45;;;14.80;91.90;;;;;;5073564;28;20060;-48
2022/04/13 21:16:24;;;;;;;9.57;2.55;;;14.80;92.00;;;;;;5073582;28;20036;-49
2022/04/13 21:18:51;;;;;;;7.82;2.20;;;14.70;92.10;;;;;;5040459;28;20526;-51
2022/04/13 21:21:18;;;;;;;6.22;2.03;;;14.60;92.20;;;;;;5054574;28;20495;-53
2022/04/13 21:23:46;;;;;;;8.75;2.28;;;14.50;92.40;;;;;;5069472;28;20415;-50
2022/04/13 21:26:13;;;;;;;8.82;2.38;;;14.40;92.50;;;;;;5073138;28;20044;-52
2022/04/13 21:28:41;;;;;;;7.43;2.50;;;14.40;92.70;;;;;;5073389;28;20064;-52
2022/04/13 21:31:08;;;;;;;8.68;2.15;;;14.30;92.80;;;;;;5070691;28;20044;-53
2022/04/13 21:33:34;;;;;;;10.00;2.50;;;14.30;92.90;;;;;;5073339;28;20040;-51
2022/04/13 21:36:01;;;;;;;6.05;2.13;;;14.20;93.00;;;;;;5073387;28;20044;-50
2022/04/13 21:38:28;;;;;;;6.18;2.10;;;14.20;93.10;;;;;;5073251;28;20098;-52
2022/04/13 21:40:55;;;;;;;5.65;2.38;;;14.20;93.20;;;;;;5072922;28;20471;-50
2022/04/13 21:43:22;;;;;;;8.15;2.25;;;14.00;93.40;;;;;;5055436;28;20044;-55
2022/04/13 21:45:49;;;;;;;9.23;2.85;;;14.00;93.50;;;;;;5073016;28;20044;-50
2022/04/13 21:48:16;;;;;;;8.55;2.33;;;13.90;93.50;;;;;;5055282;28;20068;-54
2022/04/13 21:50:42;;;;;;;6.72;2.28;;;13.90;93.60;;;;;;5072888;28;20041;-53
2022/04/13 21:53:09;;;;;;;7.63;2.40;;;13.80;93.90;;;;;;5072736;28;20125;-50
2022/04/13 21:55:36;;;;;;;9.52;2.95;;;13.80;94.00;;;;;;5072921;28;20040;-52
2022/04/13 21:58:03;;;;;;;5.63;2.25;;;13.70;94.00;;;;;;5072813;28;20032;-51
2022/04/13 22:00:29;;;;;;;6.80;2.53;;;13.70;94.20;;;;;;5069254;28;20068;-50
2022/04/13 22:02:58;;;;;;;6.40;2.63;;;13.60;94.30;;;;;;5072653;28;20076;-52
2022/04/13 22:05:25;;;;;;;7.53;2.28;;;13.60;94.40;;;;;;5072926;28;20395;-49
2022/04/13 22:07:55;;;;;;;9.90;2.80;;;13.60;94.50;;;;;;5072881;28;20075;-51
2022/04/13 22:10:21;;;;;;;12.43;3.05;;;13.50;94.50;;;;;;5068756;28;20371;-50
2022/04/13 22:12:48;;;;;;;5.90;2.60;;;13.50;94.60;;;;;;5072579;28;20044;-49
2022/04/13 22:15:15;;;;;;;8.90;2.92;;;13.50;94.70;;;;;;5072586;28;20440;-50
2022/04/13 22:17:41;;;;;;;12.55;3.05;;;13.40;94.80;;;;;;5072991;28;20033;-51
2022/04/13 22:20:08;;;;;;;8.38;2.85;;;13.30;94.90;;;;;;5071592;28;20394;-53
2022/04/13 22:22:35;;;;;;;9.68;2.72;;;13.30;95.00;;;;;;5072562;28;20036;-56
